sensor_id;sensor_type;location;lat;lon;timestamp;P1;durP1;ratioP1;P2;durP2;ratioP2
75379;SDS011;65641;44.714;37.756;2023-01-10T00:01:11;4.50;;;2.35;;
75379;SDS011;65641;44.714;37.756;2023-01-10T00:02:34;4.55;;;2.25;;
75379;SDS011;65641;44.714;37.756;2023-01-10T00:03:58;4.72;;;2.35;;
75379;SDS011;65641;44.714;37.756;2023-01-10T00:05:22;4.53;;;2.00;;
75379;SDS011;65641;44.714;37.756;2023-01-10T00:06:45;3.50;;;1.85;;
75379;SDS011;65641;44.714;37.756;2023-01-10T00:08:02;4.68;;;1.80;;
75379;SDS011;65641;44.714;37.756;2023-01-10T00:09:20;4.93;;;2.33;;
75379;SDS011;65641;44.714;37.756;2023-01-10T00:10:44;3.13;;;1.45;;
75379;SDS011;65641;44.714;37.756;2023-01-10T00:12:10;3.05;;;1.77;;
75379;SDS011;65641;44.714;37.756;2023-01-10T00:13:52;3.72;;;1.75;;
75379;SDS011;65641;44.714;37.756;2023-01-10T00:15:17;3.25;;;1.67;;
75379;SDS011;65641;44.714;37.756;2023-01-10T00:16:34;4.47;;;1.90;;
75379;SDS011;65641;44.714;37.756;2023-01-10T00:17:52;3.45;;;1.92;;
75379;SDS011;65641;44.714;37.756;2023-01-10T00:19:09;4.93;;;2.22;;
75379;SDS011;65641;44.714;37.756;2023-01-10T00:20:26;2.72;;;1.85;;
75379;SDS011;65641;44.714;37.756;2023-01-10T00:21:43;3.30;;;1.80;;
75379;SDS011;65641;44.714;37.756;2023-01-10T00:23:00;4.60;;;1.85;;
75379;SDS011;65641;44.714;37.756;2023-01-10T00:24:23;5.57;;;2.30;;
75379;SDS011;65641;44.714;37.756;2023-01-10T00:25:25;4.15;;;1.92;;
75379;SDS011;65641;44.714;37.756;2023-01-10T00:26:27;4.05;;;2.50;;
75379;SDS011;65641;44.714;37.756;2023-01-10T00:28:30;4.95;;;2.05;;
75379;SDS011;65641;44.714;37.756;2023-01-10T00:29:34;4.78;;;2.33;;
75379;SDS011;65641;44.714;37.756;2023-01-10T00:30:37;4.18;;;1.98;;
75379;SDS011;65641;44.714;37.756;2023-01-10T00:31:39;4.05;;;3.03;;
75379;SDS011;65641;44.714;37.756;2023-01-10T00:32:56;4.70;;;2.22;;
75379;SDS011;65641;44.714;37.756;2023-01-10T00:34:13;4.03;;;2.50;;
75379;SDS011;65641;44.714;37.756;2023-01-10T00:35:30;3.38;;;1.90;;
75379;SDS011;65641;44.714;37.756;2023-01-10T00:36:53;4.47;;;2.35;;
75379;SDS011;65641;44.714;37.756;2023-01-10T00:38:10;4.40;;;1.63;;
75379;SDS011;65641;44.714;37.756;2023-01-10T00:39:26;4.40;;;1.60;;
75379;SDS011;65641;44.714;37.756;2023-01-10T00:40:44;4.85;;;2.38;;
75379;SDS011;65641;44.714;37.756;2023-01-10T00:42:09;3.40;;;2.00;;
75379;SDS011;65641;44.714;37.756;2023-01-10T00:43:51;3.80;;;1.98;;
75379;SDS011;65641;44.714;37.756;2023-01-10T00:45:21;4.00;;;2.17;;
75379;SDS011;65641;44.714;37.756;2023-01-10T00:46:46;4.07;;;1.85;;
75379;SDS011;65641;44.714;37.756;2023-01-10T00:48:11;3.53;;;1.95;;
75379;SDS011;65641;44.714;37.756;2023-01-10T00:49:38;3.58;;;1.70;;
75379;SDS011;65641;44.714;37.756;2023-01-10T00:51:04;3.20;;;1.85;;
75379;SDS011;65641;44.714;37.756;2023-01-10T00:52:27;3.78;;;2.25;;
75379;SDS011;65641;44.714;37.756;2023-01-10T00:53:51;3.75;;;2.17;;
75379;SDS011;65641;44.714;37.756;2023-01-10T00:55:15;4.05;;;1.90;;
75379;SDS011;65641;44.714;37.756;2023-01-10T00:56:21;4.20;;;2.50;;
75379;SDS011;65641;44.714;37.756;2023-01-10T00:57:44;4.43;;;2.22;;
75379;SDS011;65641;44.714;37.756;2023-01-10T00:59:08;3.90;;;2.28;;
75379;SDS011;65641;44.714;37.756;2023-01-10T01:00:32;3.78;;;1.73;;
75379;SDS011;65641;44.714;37.756;2023-01-10T01:01:56;3.33;;;1.98;;
75379;SDS011;65641;44.714;37.756;2023-01-10T01:03:19;3.38;;;1.63;;
75379;SDS011;65641;44.714;37.756;2023-01-10T01:04:31;3.67;;;2.00;;
75379;SDS011;65641;44.714;37.756;2023-01-10T01:05:56;2.28;;;1.48;;
75379;SDS011;65641;44.714;37.756;2023-01-10T01:07:13;3.33;;;1.92;;
75379;SDS011;65641;44.714;37.756;2023-01-10T01:08:30;4.25;;;2.70;;
75379;SDS011;65641;44.714;37.756;2023-01-10T01:09:47;5.03;;;2.15;;
75379;SDS011;65641;44.714;37.756;2023-01-10T01:11:22;3.35;;;1.60;;
75379;SDS011;65641;44.714;37.756;2023-01-10T01:12:40;4.40;;;2.15;;
75379;SDS011;65641;44.714;37.756;2023-01-10T01:13:56;3.97;;;1.70;;
75379;SDS011;65641;44.714;37.756;2023-01-10T01:15:13;3.53;;;1.80;;
75379;SDS011;65641;44.714;37.756;2023-01-10T01:16:30;3.08;;;1.50;;
75379;SDS011;65641;44.714;37.756;2023-01-10T01:17:46;2.60;;;1.48;;
75379;SDS011;65641;44.714;37.756;2023-01-10T01:19:03;3.47;;;1.60;;
75379;SDS011;65641;44.714;37.756;2023-01-10T01:20:20;3.42;;;1.73;;
75379;SDS011;65641;44.714;37.756;2023-01-10T01:21:37;3.53;;;1.92;;
75379;SDS011;65641;44.714;37.756;2023-01-10T01:22:53;4.82;;;2.80;;
75379;SDS011;65641;44.714;37.756;2023-01-10T01:24:10;2.17;;;1.33;;
75379;SDS011;65641;44.714;37.756;2023-01-10T01:25:33;2.92;;;1.50;;
75379;SDS011;65641;44.714;37.756;2023-01-10T01:26:57;2.90;;;1.63;;
75379;SDS011;65641;44.714;37.756;2023-01-10T01:28:21;2.83;;;1.52;;
75379;SDS011;65641;44.714;37.756;2023-01-10T01:29:44;2.83;;;1.38;;
75379;SDS011;65641;44.714;37.756;2023-01-10T01:30:49;3.72;;;1.92;;
75379;SDS011;65641;44.714;37.756;2023-01-10T01:32:12;3.28;;;1.88;;
75379;SDS011;65641;44.714;37.756;2023-01-10T01:33:36;3.08;;;1.42;;
75379;SDS011;65641;44.714;37.756;2023-01-10T01:35:00;3.88;;;1.92;;
75379;SDS011;65641;44.714;37.756;2023-01-10T01:36:08;3.40;;;1.50;;
75379;SDS011;65641;44.714;37.756;2023-01-10T01:37:13;2.90;;;1.60;;
75379;SDS011;65641;44.714;37.756;2023-01-10T01:38:27;3.92;;;1.83;;
75379;SDS011;65641;44.714;37.756;2023-01-10T01:39:50;3.58;;;1.98;;
75379;SDS011;65641;44.714;37.756;2023-01-10T01:41:14;2.33;;;1.48;;
75379;SDS011;65641;44.714;37.756;2023-01-10T01:42:42;3.05;;;1.35;;
75379;SDS011;65641;44.714;37.756;2023-01-10T01:45:31;3.42;;;1.88;;
75379;SDS011;65641;44.714;37.756;2023-01-10T01:47:13;2.38;;;1.38;;
75379;SDS011;65641;44.714;37.756;2023-01-10T01:48:29;3.30;;;1.40;;
75379;SDS011;65641;44.714;37.756;2023-01-10T01:49:54;3.00;;;1.50;;
75379;SDS011;65641;44.714;37.756;2023-01-10T01:51:17;2.95;;;1.60;;
75379;SDS011;65641;44.714;37.756;2023-01-10T01:52:48;2.70;;;1.75;;
75379;SDS011;65641;44.714;37.756;2023-01-10T01:53:54;2.70;;;1.50;;
75379;SDS011;65641;44.714;37.756;2023-01-10T01:55:00;3.15;;;1.83;;
75379;SDS011;65641;44.714;37.756;2023-01-10T01:56:06;2.70;;;1.65;;
75379;SDS011;65641;44.714;37.756;2023-01-10T01:57:15;2.70;;;1.33;;
75379;SDS011;65641;44.714;37.756;2023-01-10T01:58:23;2.95;;;1.55;;
75379;SDS011;65641;44.714;37.756;2023-01-10T01:59:36;3.03;;;1.40;;
75379;SDS011;65641;44.714;37.756;2023-01-10T02:00:41;3.70;;;1.83;;
75379;SDS011;65641;44.714;37.756;2023-01-10T02:01:43;3.47;;;1.20;;
75379;SDS011;65641;44.714;37.756;2023-01-10T02:02:50;2.60;;;1.45;;
75379;SDS011;65641;44.714;37.756;2023-01-10T02:04:06;2.75;;;1.60;;
75379;SDS011;65641;44.714;37.756;2023-01-10T02:05:40;5.00;;;1.60;;
75379;SDS011;65641;44.714;37.756;2023-01-10T02:06:52;3.50;;;1.20;;
75379;SDS011;65641;44.714;37.756;2023-01-10T02:08:17;3.70;;;1.38;;
75379;SDS011;65641;44.714;37.756;2023-01-10T02:11:13;2.92;;;1.48;;
75379;SDS011;65641;44.714;37.756;2023-01-10T02:12:37;4.00;;;1.95;;
75379;SDS011;65641;44.714;37.756;2023-01-10T02:14:02;2.50;;;1.23;;
75379;SDS011;65641;44.714;37.756;2023-01-10T02:15:29;2.33;;;1.30;;
75379;SDS011;65641;44.714;37.756;2023-01-10T02:16:34;2.05;;;1.20;;
75379;SDS011;65641;44.714;37.756;2023-01-10T02:17:58;2.80;;;1.42;;
75379;SDS011;65641;44.714;37.756;2023-01-10T02:19:07;3.72;;;1.60;;
75379;SDS011;65641;44.714;37.756;2023-01-10T02:22:49;3.17;;;1.70;;
75379;SDS011;65641;44.714;37.756;2023-01-10T02:33:28;2.78;;;1.95;;
75379;SDS011;65641;44.714;37.756;2023-01-10T02:36:07;2.72;;;1.55;;
75379;SDS011;65641;44.714;37.756;2023-01-10T02:40:54;2.83;;;1.58;;
75379;SDS011;65641;44.714;37.756;2023-01-10T02:43:19;2.55;;;1.42;;
75379;SDS011;65641;44.714;37.756;2023-01-10T02:44:49;2.78;;;1.23;;
75379;SDS011;65641;44.714;37.756;2023-01-10T02:46:36;3.13;;;1.25;;
75379;SDS011;65641;44.714;37.756;2023-01-10T02:49:07;3.90;;;1.23;;
75379;SDS011;65641;44.714;37.756;2023-01-10T02:50:24;2.10;;;0.95;;
75379;SDS011;65641;44.714;37.756;2023-01-10T02:51:33;2.63;;;1.70;;
75379;SDS011;65641;44.714;37.756;2023-01-10T02:52:58;2.72;;;1.30;;
75379;SDS011;65641;44.714;37.756;2023-01-10T02:54:25;2.80;;;1.60;;
75379;SDS011;65641;44.714;37.756;2023-01-10T02:57:30;3.13;;;1.65;;
75379;SDS011;65641;44.714;37.756;2023-01-10T03:00:03;2.58;;;1.40;;
75379;SDS011;65641;44.714;37.756;2023-01-10T03:06:22;2.85;;;1.73;;
75379;SDS011;65641;44.714;37.756;2023-01-10T03:07:35;2.38;;;1.52;;
75379;SDS011;65641;44.714;37.756;2023-01-10T03:09:23;2.35;;;1.00;;
75379;SDS011;65641;44.714;37.756;2023-01-10T03:11:07;2.97;;;1.55;;
75379;SDS011;65641;44.714;37.756;2023-01-10T03:14:17;2.95;;;1.67;;
75379;SDS011;65641;44.714;37.756;2023-01-10T03:15:44;3.63;;;1.55;;
75379;SDS011;65641;44.714;37.756;2023-01-10T03:18:14;2.03;;;1.10;;
75379;SDS011;65641;44.714;37.756;2023-01-10T03:19:47;2.08;;;0.98;;
75379;SDS011;65641;44.714;37.756;2023-01-10T03:20:53;1.90;;;0.88;;
75379;SDS011;65641;44.714;37.756;2023-01-10T03:22:00;2.50;;;1.23;;
75379;SDS011;65641;44.714;37.756;2023-01-10T03:23:07;2.75;;;1.25;;
75379;SDS011;65641;44.714;37.756;2023-01-10T03:24:37;4.38;;;1.67;;
75379;SDS011;65641;44.714;37.756;2023-01-10T03:25:46;3.42;;;1.50;;
75379;SDS011;65641;44.714;37.756;2023-01-10T03:26:53;3.15;;;1.40;;
75379;SDS011;65641;44.714;37.756;2023-01-10T03:28:23;2.13;;;1.10;;
75379;SDS011;65641;44.714;37.756;2023-01-10T03:31:12;1.98;;;1.00;;
75379;SDS011;65641;44.714;37.756;2023-01-10T03:32:21;2.33;;;1.25;;
75379;SDS011;65641;44.714;37.756;2023-01-10T03:33:48;3.05;;;0.95;;
75379;SDS011;65641;44.714;37.756;2023-01-10T03:35:12;2.80;;;1.42;;
75379;SDS011;65641;44.714;37.756;2023-01-10T03:40:08;2.35;;;1.10;;
75379;SDS011;65641;44.714;37.756;2023-01-10T03:41:39;2.05;;;1.42;;
75379;SDS011;65641;44.714;37.756;2023-01-10T03:45:05;2.05;;;1.10;;
75379;SDS011;65641;44.714;37.756;2023-01-10T03:47:55;2.90;;;1.02;;
75379;SDS011;65641;44.714;37.756;2023-01-10T03:49:23;1.88;;;0.85;;
75379;SDS011;65641;44.714;37.756;2023-01-10T03:50:31;3.08;;;1.63;;
75379;SDS011;65641;44.714;37.756;2023-01-10T03:51:41;2.53;;;1.02;;
75379;SDS011;65641;44.714;37.756;2023-01-10T03:52:55;2.17;;;1.58;;
75379;SDS011;65641;44.714;37.756;2023-01-10T03:54:19;2.30;;;1.35;;
75379;SDS011;65641;44.714;37.756;2023-01-10T03:55:25;2.35;;;1.42;;
75379;SDS011;65641;44.714;37.756;2023-01-10T03:56:51;3.13;;;1.42;;
75379;SDS011;65641;44.714;37.756;2023-01-10T03:58:14;2.42;;;0.90;;
75379;SDS011;65641;44.714;37.756;2023-01-10T03:59:39;1.88;;;1.05;;
75379;SDS011;65641;44.714;37.756;2023-01-10T04:01:05;3.10;;;1.55;;
75379;SDS011;65641;44.714;37.756;2023-01-10T04:02:29;2.35;;;1.17;;
75379;SDS011;65641;44.714;37.756;2023-01-10T04:03:47;2.78;;;1.25;;
75379;SDS011;65641;44.714;37.756;2023-01-10T04:05:03;2.42;;;1.17;;
75379;SDS011;65641;44.714;37.756;2023-01-10T04:06:20;2.90;;;1.60;;
75379;SDS011;65641;44.714;37.756;2023-01-10T04:07:37;2.58;;;1.45;;
75379;SDS011;65641;44.714;37.756;2023-01-10T04:08:54;3.42;;;1.45;;
75379;SDS011;65641;44.714;37.756;2023-01-10T04:10:10;1.98;;;1.20;;
75379;SDS011;65641;44.714;37.756;2023-01-10T04:11:27;3.35;;;1.27;;
75379;SDS011;65641;44.714;37.756;2023-01-10T04:12:44;2.95;;;1.30;;
75379;SDS011;65641;44.714;37.756;2023-01-10T04:14:00;2.50;;;1.30;;
75379;SDS011;65641;44.714;37.756;2023-01-10T04:15:17;2.55;;;1.63;;
75379;SDS011;65641;44.714;37.756;2023-01-10T04:16:34;2.60;;;1.45;;
75379;SDS011;65641;44.714;37.756;2023-01-10T04:17:50;3.80;;;1.70;;
75379;SDS011;65641;44.714;37.756;2023-01-10T04:19:14;2.33;;;1.35;;
75379;SDS011;65641;44.714;37.756;2023-01-10T04:20:37;3.35;;;1.63;;
75379;SDS011;65641;44.714;37.756;2023-01-10T04:21:53;3.40;;;1.58;;
75379;SDS011;65641;44.714;37.756;2023-01-10T04:23:17;2.92;;;1.52;;
75379;SDS011;65641;44.714;37.756;2023-01-10T04:24:40;2.28;;;1.20;;
75379;SDS011;65641;44.714;37.756;2023-01-10T04:26:06;4.07;;;1.50;;
75379;SDS011;65641;44.714;37.756;2023-01-10T04:27:29;2.63;;;1.23;;
75379;SDS011;65641;44.714;37.756;2023-01-10T04:28:53;3.58;;;1.65;;
75379;SDS011;65641;44.714;37.756;2023-01-10T04:31:11;2.78;;;1.70;;
75379;SDS011;65641;44.714;37.756;2023-01-10T04:32:13;4.57;;;1.88;;
75379;SDS011;65641;44.714;37.756;2023-01-10T04:34:16;2.60;;;1.50;;
75379;SDS011;65641;44.714;37.756;2023-01-10T04:35:32;3.22;;;1.65;;
75379;SDS011;65641;44.714;37.756;2023-01-10T04:36:56;3.33;;;1.95;;
75379;SDS011;65641;44.714;37.756;2023-01-10T04:38:20;3.08;;;1.52;;
75379;SDS011;65641;44.714;37.756;2023-01-10T04:39:44;4.53;;;1.85;;
75379;SDS011;65641;44.714;37.756;2023-01-10T04:41:07;2.97;;;1.90;;
75379;SDS011;65641;44.714;37.756;2023-01-10T04:43:10;3.45;;;1.83;;
75379;SDS011;65641;44.714;37.756;2023-01-10T04:45:13;2.97;;;1.80;;
75379;SDS011;65641;44.714;37.756;2023-01-10T04:46:17;3.63;;;1.55;;
75379;SDS011;65641;44.714;37.756;2023-01-10T04:48:20;4.32;;;1.52;;
75379;SDS011;65641;44.714;37.756;2023-01-10T04:49:22;3.33;;;2.17;;
75379;SDS011;65641;44.714;37.756;2023-01-10T04:50:23;4.22;;;2.60;;
75379;SDS011;65641;44.714;37.756;2023-01-10T04:51:26;4.28;;;2.13;;
75379;SDS011;65641;44.714;37.756;2023-01-10T04:52:28;4.25;;;2.05;;
75379;SDS011;65641;44.714;37.756;2023-01-10T04:53:30;4.38;;;2.13;;
75379;SDS011;65641;44.714;37.756;2023-01-10T04:54:53;3.60;;;1.95;;
75379;SDS011;65641;44.714;37.756;2023-01-10T04:56:18;5.18;;;2.10;;
75379;SDS011;65641;44.714;37.756;2023-01-10T04:57:21;2.85;;;1.70;;
75379;SDS011;65641;44.714;37.756;2023-01-10T04:58:45;3.53;;;1.60;;
75379;SDS011;65641;44.714;37.756;2023-01-10T05:00:09;4.10;;;2.35;;
75379;SDS011;65641;44.714;37.756;2023-01-10T05:01:34;4.28;;;2.17;;
75379;SDS011;65641;44.714;37.756;2023-01-10T05:03:00;4.75;;;2.47;;
75379;SDS011;65641;44.714;37.756;2023-01-10T05:04:24;4.35;;;2.13;;
75379;SDS011;65641;44.714;37.756;2023-01-10T05:05:48;3.83;;;2.00;;
75379;SDS011;65641;44.714;37.756;2023-01-10T05:07:11;4.13;;;2.33;;
75379;SDS011;65641;44.714;37.756;2023-01-10T05:08:18;4.75;;;2.53;;
75379;SDS011;65641;44.714;37.756;2023-01-10T05:09:42;5.18;;;2.65;;
75379;SDS011;65641;44.714;37.756;2023-01-10T05:11:05;5.78;;;2.70;;
75379;SDS011;65641;44.714;37.756;2023-01-10T05:12:29;6.10;;;2.28;;
75379;SDS011;65641;44.714;37.756;2023-01-10T05:13:52;5.30;;;2.65;;
75379;SDS011;65641;44.714;37.756;2023-01-10T05:15:16;5.32;;;2.42;;
75379;SDS011;65641;44.714;37.756;2023-01-10T05:16:33;4.35;;;2.47;;
75379;SDS011;65641;44.714;37.756;2023-01-10T05:17:56;5.15;;;3.10;;
75379;SDS011;65641;44.714;37.756;2023-01-10T05:19:14;5.60;;;2.55;;
75379;SDS011;65641;44.714;37.756;2023-01-10T05:20:30;5.22;;;3.10;;
75379;SDS011;65641;44.714;37.756;2023-01-10T05:21:47;5.43;;;2.53;;
75379;SDS011;65641;44.714;37.756;2023-01-10T05:23:05;5.68;;;2.80;;
75379;SDS011;65641;44.714;37.756;2023-01-10T05:24:21;5.50;;;2.95;;
75379;SDS011;65641;44.714;37.756;2023-01-10T05:25:38;6.00;;;3.50;;
75379;SDS011;65641;44.714;37.756;2023-01-10T05:26:54;7.13;;;3.22;;
75379;SDS011;65641;44.714;37.756;2023-01-10T05:28:11;4.75;;;2.95;;
75379;SDS011;65641;44.714;37.756;2023-01-10T05:29:27;6.97;;;3.33;;
75379;SDS011;65641;44.714;37.756;2023-01-10T05:30:44;6.05;;;3.42;;
75379;SDS011;65641;44.714;37.756;2023-01-10T05:32:01;6.47;;;3.20;;
75379;SDS011;65641;44.714;37.756;2023-01-10T05:33:24;6.78;;;3.00;;
75379;SDS011;65641;44.714;37.756;2023-01-10T05:34:48;5.72;;;3.58;;
75379;SDS011;65641;44.714;37.756;2023-01-10T05:36:12;5.40;;;3.08;;
75379;SDS011;65641;44.714;37.756;2023-01-10T05:37:35;8.02;;;3.95;;
75379;SDS011;65641;44.714;37.756;2023-01-10T05:38:59;9.00;;;3.90;;
75379;SDS011;65641;44.714;37.756;2023-01-10T05:40:06;6.45;;;3.22;;
75379;SDS011;65641;44.714;37.756;2023-01-10T05:41:14;6.90;;;3.75;;
75379;SDS011;65641;44.714;37.756;2023-01-10T05:42:37;6.75;;;3.50;;
75379;SDS011;65641;44.714;37.756;2023-01-10T05:44:01;7.70;;;4.00;;
75379;SDS011;65641;44.714;37.756;2023-01-10T05:45:18;9.10;;;4.30;;
75379;SDS011;65641;44.714;37.756;2023-01-10T05:46:34;8.82;;;3.75;;
75379;SDS011;65641;44.714;37.756;2023-01-10T05:47:51;7.72;;;4.05;;
75379;SDS011;65641;44.714;37.756;2023-01-10T05:49:08;8.50;;;4.03;;
75379;SDS011;65641;44.714;37.756;2023-01-10T05:50:24;8.80;;;4.50;;
75379;SDS011;65641;44.714;37.756;2023-01-10T05:51:42;8.77;;;4.32;;
75379;SDS011;65641;44.714;37.756;2023-01-10T05:53:15;7.95;;;4.45;;
75379;SDS011;65641;44.714;37.756;2023-01-10T05:54:33;8.52;;;4.70;;
75379;SDS011;65641;44.714;37.756;2023-01-10T05:55:56;7.15;;;3.60;;
75379;SDS011;65641;44.714;37.756;2023-01-10T05:58:31;8.88;;;5.00;;
75379;SDS011;65641;44.714;37.756;2023-01-10T05:59:48;8.38;;;4.22;;
75379;SDS011;65641;44.714;37.756;2023-01-10T06:01:12;8.75;;;4.40;;
75379;SDS011;65641;44.714;37.756;2023-01-10T06:02:36;9.02;;;4.53;;
75379;SDS011;65641;44.714;37.756;2023-01-10T06:03:59;8.68;;;4.03;;
75379;SDS011;65641;44.714;37.756;2023-01-10T06:05:23;8.23;;;4.38;;
75379;SDS011;65641;44.714;37.756;2023-01-10T06:06:40;8.90;;;5.13;;
75379;SDS011;65641;44.714;37.756;2023-01-10T06:07:42;9.73;;;5.43;;
75379;SDS011;65641;44.714;37.756;2023-01-10T06:08:44;10.15;;;5.88;;
75379;SDS011;65641;44.714;37.756;2023-01-10T06:09:54;8.23;;;5.00;;
75379;SDS011;65641;44.714;37.756;2023-01-10T06:11:18;10.20;;;5.00;;
75379;SDS011;65641;44.714;37.756;2023-01-10T06:12:42;9.20;;;5.13;;
75379;SDS011;65641;44.714;37.756;2023-01-10T06:14:05;11.00;;;5.50;;
75379;SDS011;65641;44.714;37.756;2023-01-10T06:15:29;9.00;;;5.30;;
75379;SDS011;65641;44.714;37.756;2023-01-10T06:16:54;8.45;;;4.47;;
75379;SDS011;65641;44.714;37.756;2023-01-10T06:18:17;8.98;;;5.07;;
75379;SDS011;65641;44.714;37.756;2023-01-10T06:19:41;11.18;;;5.50;;
75379;SDS011;65641;44.714;37.756;2023-01-10T06:21:04;8.82;;;4.93;;
75379;SDS011;65641;44.714;37.756;2023-01-10T06:22:28;9.48;;;5.53;;
75379;SDS011;65641;44.714;37.756;2023-01-10T06:23:32;8.80;;;4.63;;
75379;SDS011;65641;44.714;37.756;2023-01-10T06:24:36;9.13;;;5.47;;
75379;SDS011;65641;44.714;37.756;2023-01-10T06:26:00;8.90;;;5.30;;
75379;SDS011;65641;44.714;37.756;2023-01-10T06:27:23;10.25;;;5.57;;
75379;SDS011;65641;44.714;37.756;2023-01-10T06:28:40;9.23;;;5.18;;
75379;SDS011;65641;44.714;37.756;2023-01-10T06:29:56;9.73;;;4.57;;
75379;SDS011;65641;44.714;37.756;2023-01-10T06:31:08;8.40;;;5.60;;
75379;SDS011;65641;44.714;37.756;2023-01-10T06:32:32;10.15;;;5.35;;
75379;SDS011;65641;44.714;37.756;2023-01-10T06:34:35;8.52;;;4.85;;
75379;SDS011;65641;44.714;37.756;2023-01-10T06:35:37;11.43;;;6.07;;
75379;SDS011;65641;44.714;37.756;2023-01-10T06:37:40;9.02;;;4.35;;
75379;SDS011;65641;44.714;37.756;2023-01-10T06:39:43;9.82;;;5.15;;
75379;SDS011;65641;44.714;37.756;2023-01-10T06:41:01;10.32;;;4.78;;
75379;SDS011;65641;44.714;37.756;2023-01-10T06:42:27;9.75;;;4.57;;
75379;SDS011;65641;44.714;37.756;2023-01-10T06:43:45;10.45;;;4.75;;
75379;SDS011;65641;44.714;37.756;2023-01-10T06:45:02;10.00;;;5.32;;
75379;SDS011;65641;44.714;37.756;2023-01-10T06:46:19;9.55;;;4.95;;
75379;SDS011;65641;44.714;37.756;2023-01-10T06:47:28;8.73;;;5.38;;
75379;SDS011;65641;44.714;37.756;2023-01-10T06:48:36;10.25;;;5.32;;
75379;SDS011;65641;44.714;37.756;2023-01-10T06:49:47;9.82;;;5.57;;
75379;SDS011;65641;44.714;37.756;2023-01-10T06:51:12;9.65;;;4.57;;
75379;SDS011;65641;44.714;37.756;2023-01-10T06:52:37;11.25;;;5.90;;
75379;SDS011;65641;44.714;37.756;2023-01-10T06:54:01;10.20;;;5.07;;
75379;SDS011;65641;44.714;37.756;2023-01-10T06:55:25;11.82;;;4.78;;
75379;SDS011;65641;44.714;37.756;2023-01-10T06:56:49;9.23;;;5.05;;
75379;SDS011;65641;44.714;37.756;2023-01-10T06:58:12;8.23;;;5.22;;
75379;SDS011;65641;44.714;37.756;2023-01-10T06:59:40;10.25;;;5.22;;
75379;SDS011;65641;44.714;37.756;2023-01-10T07:00:45;9.30;;;4.63;;
75379;SDS011;65641;44.714;37.756;2023-01-10T07:01:50;9.75;;;5.43;;
75379;SDS011;65641;44.714;37.756;2023-01-10T07:03:14;10.63;;;5.35;;
75379;SDS011;65641;44.714;37.756;2023-01-10T07:04:27;8.70;;;5.00;;
75379;SDS011;65641;44.714;37.756;2023-01-10T07:05:51;8.27;;;4.85;;
75379;SDS011;65641;44.714;37.756;2023-01-10T07:06:56;10.07;;;5.05;;
75379;SDS011;65641;44.714;37.756;2023-01-10T07:08:01;9.30;;;5.28;;
75379;SDS011;65641;44.714;37.756;2023-01-10T07:09:08;7.43;;;5.15;;
75379;SDS011;65641;44.714;37.756;2023-01-10T07:10:31;9.55;;;5.47;;
75379;SDS011;65641;44.714;37.756;2023-01-10T07:11:55;7.28;;;4.53;;
75379;SDS011;65641;44.714;37.756;2023-01-10T07:13:19;7.93;;;4.35;;
75379;SDS011;65641;44.714;37.756;2023-01-10T07:14:24;8.73;;;4.75;;
75379;SDS011;65641;44.714;37.756;2023-01-10T07:15:47;7.82;;;4.68;;
75379;SDS011;65641;44.714;37.756;2023-01-10T07:17:11;8.63;;;4.50;;
75379;SDS011;65641;44.714;37.756;2023-01-10T07:18:35;8.75;;;4.68;;
75379;SDS011;65641;44.714;37.756;2023-01-10T07:20:00;8.65;;;4.85;;
75379;SDS011;65641;44.714;37.756;2023-01-10T07:21:23;7.63;;;4.05;;
75379;SDS011;65641;44.714;37.756;2023-01-10T07:22:54;10.13;;;5.90;;
75379;SDS011;65641;44.714;37.756;2023-01-10T07:24:22;9.63;;;5.40;;
75379;SDS011;65641;44.714;37.756;2023-01-10T07:25:31;9.90;;;5.55;;
75379;SDS011;65641;44.714;37.756;2023-01-10T07:26:55;9.27;;;4.88;;
75379;SDS011;65641;44.714;37.756;2023-01-10T07:28:11;10.02;;;4.90;;
75379;SDS011;65641;44.714;37.756;2023-01-10T07:29:28;10.13;;;4.93;;
75379;SDS011;65641;44.714;37.756;2023-01-10T07:30:44;9.93;;;4.95;;
75379;SDS011;65641;44.714;37.756;2023-01-10T07:32:01;10.52;;;4.47;;
75379;SDS011;65641;44.714;37.756;2023-01-10T07:33:06;8.95;;;4.88;;
75379;SDS011;65641;44.714;37.756;2023-01-10T07:34:29;10.55;;;4.95;;
75379;SDS011;65641;44.714;37.756;2023-01-10T07:35:53;9.50;;;4.97;;
75379;SDS011;65641;44.714;37.756;2023-01-10T07:37:17;10.68;;;4.90;;
75379;SDS011;65641;44.714;37.756;2023-01-10T07:38:26;10.10;;;4.95;;
75379;SDS011;65641;44.714;37.756;2023-01-10T07:39:51;11.13;;;4.88;;
75379;SDS011;65641;44.714;37.756;2023-01-10T07:41:14;11.40;;;5.32;;
75379;SDS011;65641;44.714;37.756;2023-01-10T07:42:38;9.65;;;5.07;;
75379;SDS011;65641;44.714;37.756;2023-01-10T07:44:01;10.48;;;5.47;;
75379;SDS011;65641;44.714;37.756;2023-01-10T07:45:26;9.60;;;4.53;;
75379;SDS011;65641;44.714;37.756;2023-01-10T07:46:51;10.20;;;5.30;;
75379;SDS011;65641;44.714;37.756;2023-01-10T07:48:14;8.98;;;5.10;;
75379;SDS011;65641;44.714;37.756;2023-01-10T07:49:38;8.95;;;4.88;;
75379;SDS011;65641;44.714;37.756;2023-01-10T07:51:01;10.73;;;4.90;;
75379;SDS011;65641;44.714;37.756;2023-01-10T07:52:26;9.90;;;5.38;;
75379;SDS011;65641;44.714;37.756;2023-01-10T07:53:49;10.57;;;5.38;;
75379;SDS011;65641;44.714;37.756;2023-01-10T07:55:13;9.45;;;4.72;;
75379;SDS011;65641;44.714;37.756;2023-01-10T07:56:37;8.77;;;4.90;;
75379;SDS011;65641;44.714;37.756;2023-01-10T07:57:39;11.55;;;5.18;;
75379;SDS011;65641;44.714;37.756;2023-01-10T07:58:43;10.05;;;5.53;;
75379;SDS011;65641;44.714;37.756;2023-01-10T08:00:08;11.25;;;5.10;;
75379;SDS011;65641;44.714;37.756;2023-01-10T08:01:10;12.60;;;5.53;;
75379;SDS011;65641;44.714;37.756;2023-01-10T08:02:12;12.00;;;5.32;;
75379;SDS011;65641;44.714;37.756;2023-01-10T08:04:15;9.85;;;4.55;;
75379;SDS011;65641;44.714;37.756;2023-01-10T08:06:18;9.43;;;4.53;;
75379;SDS011;65641;44.714;37.756;2023-01-10T08:07:20;10.60;;;5.68;;
75379;SDS011;65641;44.714;37.756;2023-01-10T08:08:22;10.00;;;5.43;;
75379;SDS011;65641;44.714;37.756;2023-01-10T08:09:23;8.75;;;5.18;;
75379;SDS011;65641;44.714;37.756;2023-01-10T08:10:25;9.93;;;5.57;;
75379;SDS011;65641;44.714;37.756;2023-01-10T08:11:27;9.95;;;5.13;;
75379;SDS011;65641;44.714;37.756;2023-01-10T08:12:29;11.20;;;6.45;;
75379;SDS011;65641;44.714;37.756;2023-01-10T08:13:31;11.55;;;5.80;;
75379;SDS011;65641;44.714;37.756;2023-01-10T08:14:32;13.75;;;5.57;;
75379;SDS011;65641;44.714;37.756;2023-01-10T08:15:34;12.77;;;5.85;;
75379;SDS011;65641;44.714;37.756;2023-01-10T08:17:37;12.40;;;5.20;;
75379;SDS011;65641;44.714;37.756;2023-01-10T08:18:39;13.85;;;6.05;;
75379;SDS011;65641;44.714;37.756;2023-01-10T08:20:05;11.75;;;5.85;;
75379;SDS011;65641;44.714;37.756;2023-01-10T08:21:29;10.25;;;5.25;;
75379;SDS011;65641;44.714;37.756;2023-01-10T08:22:34;8.93;;;4.85;;
75379;SDS011;65641;44.714;37.756;2023-01-10T08:23:40;11.07;;;5.53;;
75379;SDS011;65641;44.714;37.756;2023-01-10T08:24:44;11.20;;;6.15;;
75379;SDS011;65641;44.714;37.756;2023-01-10T08:26:07;11.85;;;6.43;;
75379;SDS011;65641;44.714;37.756;2023-01-10T08:27:12;12.80;;;6.20;;
75379;SDS011;65641;44.714;37.756;2023-01-10T08:28:17;10.18;;;5.75;;
75379;SDS011;65641;44.714;37.756;2023-01-10T08:29:41;10.52;;;5.82;;
75379;SDS011;65641;44.714;37.756;2023-01-10T08:30:55;11.57;;;6.22;;
75379;SDS011;65641;44.714;37.756;2023-01-10T08:32:02;12.30;;;5.55;;
75379;SDS011;65641;44.714;37.756;2023-01-10T08:33:06;11.93;;;5.88;;
75379;SDS011;65641;44.714;37.756;2023-01-10T08:34:30;12.13;;;5.93;;
75379;SDS011;65641;44.714;37.756;2023-01-10T08:35:54;11.05;;;6.00;;